sensor_id;sensor_type;location;lat;lon;timestamp;P1;durP1;ratioP1;P2;durP2;ratioP2
24739;SDS011;45234;48.148;17.128;2024-02-16T00:01:59;44.13;;;29.65;;
24739;SDS011;45234;48.148;17.128;2024-02-16T00:04:27;41.75;;;28.63;;
24739;SDS011;45234;48.148;17.128;2024-02-16T00:06:54;45.25;;;28.88;;
24739;SDS011;45234;48.148;17.128;2024-02-16T00:09:21;44.60;;;31.00;;
24739;SDS011;45234;48.148;17.128;2024-02-16T00:11:48;44.33;;;30.10;;
24739;SDS011;45234;48.148;17.128;2024-02-16T00:14:16;44.30;;;29.83;;
24739;SDS011;45234;48.148;17.128;2024-02-16T00:16:43;46.85;;;31.15;;
24739;SDS011;45234;48.148;17.128;2024-02-16T00:19:10;51.15;;;32.97;;
24739;SDS011;45234;48.148;17.128;2024-02-16T00:21:37;51.67;;;31.63;;
24739;SDS011;45234;48.148;17.128;2024-02-16T00:24:08;54.22;;;34.58;;
24739;SDS011;45234;48.148;17.128;2024-02-16T00:26:35;55.22;;;32.97;;
24739;SDS011;45234;48.148;17.128;2024-02-16T00:29:05;49.40;;;32.72;;
24739;SDS011;45234;48.148;17.128;2024-02-16T00:31:32;50.47;;;33.50;;
24739;SDS011;45234;48.148;17.128;2024-02-16T00:33:59;55.25;;;33.17;;
24739;SDS011;45234;48.148;17.128;2024-02-16T00:36:26;51.13;;;32.40;;
24739;SDS011;45234;48.148;17.128;2024-02-16T00:38:54;46.55;;;31.42;;
24739;SDS011;45234;48.148;17.128;2024-02-16T00:41:21;52.38;;;33.78;;
24739;SDS011;45234;48.148;17.128;2024-02-16T00:43:49;47.53;;;32.83;;
24739;SDS011;45234;48.148;17.128;2024-02-16T00:46:18;55.08;;;34.58;;
24739;SDS011;45234;48.148;17.128;2024-02-16T00:48:44;50.38;;;33.47;;
24739;SDS011;45234;48.148;17.128;2024-02-16T00:51:12;46.17;;;32.10;;
24739;SDS011;45234;48.148;17.128;2024-02-16T00:53:39;53.45;;;32.50;;
24739;SDS011;45234;48.148;17.128;2024-02-16T00:56:06;48.97;;;32.15;;
24739;SDS011;45234;48.148;17.128;2024-02-16T00:58:34;50.17;;;32.55;;
24739;SDS011;45234;48.148;17.128;2024-02-16T01:01:03;46.00;;;31.88;;
24739;SDS011;45234;48.148;17.128;2024-02-16T01:03:30;48.40;;;31.73;;
24739;SDS011;45234;48.148;17.128;2024-02-16T01:05:57;52.17;;;32.35;;
24739;SDS011;45234;48.148;17.128;2024-02-16T01:08:24;55.35;;;33.75;;
24739;SDS011;45234;48.148;17.128;2024-02-16T01:10:53;50.83;;;32.78;;
24739;SDS011;45234;48.148;17.128;2024-02-16T01:13:20;47.85;;;32.58;;
24739;SDS011;45234;48.148;17.128;2024-02-16T01:15:47;52.00;;;33.72;;
24739;SDS011;45234;48.148;17.128;2024-02-16T01:18:13;48.72;;;32.30;;
24739;SDS011;45234;48.148;17.128;2024-02-16T01:20:41;55.85;;;33.97;;
24739;SDS011;45234;48.148;17.128;2024-02-16T01:23:08;53.17;;;34.08;;
24739;SDS011;45234;48.148;17.128;2024-02-16T01:25:35;50.50;;;33.15;;
24739;SDS011;45234;48.148;17.128;2024-02-16T01:28:01;53.08;;;33.33;;
24739;SDS011;45234;48.148;17.128;2024-02-16T01:30:28;51.85;;;33.58;;
24739;SDS011;45234;48.148;17.128;2024-02-16T01:32:55;50.72;;;35.15;;
24739;SDS011;45234;48.148;17.128;2024-02-16T01:35:22;53.15;;;34.20;;
24739;SDS011;45234;48.148;17.128;2024-02-16T01:37:49;51.83;;;34.92;;
24739;SDS011;45234;48.148;17.128;2024-02-16T01:40:15;52.58;;;33.67;;
24739;SDS011;45234;48.148;17.128;2024-02-16T01:42:43;54.22;;;34.33;;
24739;SDS011;45234;48.148;17.128;2024-02-16T01:45:12;53.25;;;34.03;;
24739;SDS011;45234;48.148;17.128;2024-02-16T01:47:41;51.83;;;34.10;;
24739;SDS011;45234;48.148;17.128;2024-02-16T01:50:12;53.42;;;34.45;;
24739;SDS011;45234;48.148;17.128;2024-02-16T01:52:40;49.60;;;32.78;;
24739;SDS011;45234;48.148;17.128;2024-02-16T01:55:08;51.65;;;33.58;;
24739;SDS011;45234;48.148;17.128;2024-02-16T01:57:36;50.72;;;33.75;;
24739;SDS011;45234;48.148;17.128;2024-02-16T02:00:06;51.78;;;33.08;;
24739;SDS011;45234;48.148;17.128;2024-02-16T02:02:36;51.42;;;32.83;;
24739;SDS011;45234;48.148;17.128;2024-02-16T02:05:03;47.53;;;31.00;;
24739;SDS011;45234;48.148;17.128;2024-02-16T02:07:31;47.70;;;31.15;;
24739;SDS011;45234;48.148;17.128;2024-02-16T02:09:58;52.08;;;32.75;;
24739;SDS011;45234;48.148;17.128;2024-02-16T02:12:25;50.63;;;33.85;;
24739;SDS011;45234;48.148;17.128;2024-02-16T02:14:52;52.28;;;34.30;;
24739;SDS011;45234;48.148;17.128;2024-02-16T02:17:19;47.47;;;33.78;;
24739;SDS011;45234;48.148;17.128;2024-02-16T02:19:46;48.78;;;33.03;;
24739;SDS011;45234;48.148;17.128;2024-02-16T02:22:17;48.50;;;33.13;;
24739;SDS011;45234;48.148;17.128;2024-02-16T02:24:45;54.97;;;34.38;;
24739;SDS011;45234;48.148;17.128;2024-02-16T02:27:12;46.83;;;32.13;;
24739;SDS011;45234;48.148;17.128;2024-02-16T02:29:40;53.92;;;33.97;;
24739;SDS011;45234;48.148;17.128;2024-02-16T02:32:07;53.28;;;33.67;;
24739;SDS011;45234;48.148;17.128;2024-02-16T02:34:35;53.67;;;33.22;;
24739;SDS011;45234;48.148;17.128;2024-02-16T02:37:02;47.70;;;32.75;;
24739;SDS011;45234;48.148;17.128;2024-02-16T02:39:32;50.10;;;33.33;;
24739;SDS011;45234;48.148;17.128;2024-02-16T02:41:59;51.15;;;34.70;;
24739;SDS011;45234;48.148;17.128;2024-02-16T02:44:26;50.63;;;31.85;;
24739;SDS011;45234;48.148;17.128;2024-02-16T02:46:53;50.78;;;32.78;;
24739;SDS011;45234;48.148;17.128;2024-02-16T02:49:20;52.50;;;34.45;;
24739;SDS011;45234;48.148;17.128;2024-02-16T02:51:47;51.28;;;33.55;;
24739;SDS011;45234;48.148;17.128;2024-02-16T02:54:13;52.70;;;33.53;;
24739;SDS011;45234;48.148;17.128;2024-02-16T02:56:40;53.78;;;34.78;;
24739;SDS011;45234;48.148;17.128;2024-02-16T02:59:07;50.20;;;33.85;;
24739;SDS011;45234;48.148;17.128;2024-02-16T03:01:35;50.17;;;33.55;;
24739;SDS011;45234;48.148;17.128;2024-02-16T03:04:03;54.75;;;34.30;;
24739;SDS011;45234;48.148;17.128;2024-02-16T03:06:30;52.15;;;34.05;;
24739;SDS011;45234;48.148;17.128;2024-02-16T03:08:57;55.88;;;36.22;;
24739;SDS011;45234;48.148;17.128;2024-02-16T03:11:23;52.35;;;34.95;;
24739;SDS011;45234;48.148;17.128;2024-02-16T03:13:51;48.47;;;31.70;;
24739;SDS011;45234;48.148;17.128;2024-02-16T03:16:18;51.47;;;33.90;;
24739;SDS011;45234;48.148;17.128;2024-02-16T03:18:45;47.85;;;32.95;;
24739;SDS011;45234;48.148;17.128;2024-02-16T03:21:13;46.42;;;31.80;;
24739;SDS011;45234;48.148;17.128;2024-02-16T03:23:43;51.63;;;32.83;;
24739;SDS011;45234;48.148;17.128;2024-02-16T03:26:19;52.40;;;32.50;;
24739;SDS011;45234;48.148;17.128;2024-02-16T03:28:46;51.38;;;33.55;;
24739;SDS011;45234;48.148;17.128;2024-02-16T03:31:15;49.30;;;32.83;;
24739;SDS011;45234;48.148;17.128;2024-02-16T03:33:48;48.58;;;31.73;;
24739;SDS011;45234;48.148;17.128;2024-02-16T03:36:17;49.72;;;33.72;;
24739;SDS011;45234;48.148;17.128;2024-02-16T03:38:45;46.75;;;31.38;;
24739;SDS011;45234;48.148;17.128;2024-02-16T03:41:19;51.00;;;32.03;;
24739;SDS011;45234;48.148;17.128;2024-02-16T03:43:47;46.42;;;30.80;;
24739;SDS011;45234;48.148;17.128;2024-02-16T03:46:14;46.40;;;31.17;;
24739;SDS011;45234;48.148;17.128;2024-02-16T03:48:41;51.35;;;30.92;;
24739;SDS011;45234;48.148;17.128;2024-02-16T03:51:08;51.40;;;31.00;;
24739;SDS011;45234;48.148;17.128;2024-02-16T03:53:36;52.33;;;32.78;;
24739;SDS011;45234;48.148;17.128;2024-02-16T03:56:02;49.03;;;31.83;;
24739;SDS011;45234;48.148;17.128;2024-02-16T03:58:31;46.83;;;30.42;;
24739;SDS011;45234;48.148;17.128;2024-02-16T04:00:58;47.47;;;31.42;;
24739;SDS011;45234;48.148;17.128;2024-02-16T04:03:25;47.78;;;30.77;;
24739;SDS011;45234;48.148;17.128;2024-02-16T04:05:52;49.50;;;32.28;;
24739;SDS011;45234;48.148;17.128;2024-02-16T04:08:19;52.38;;;32.92;;
24739;SDS011;45234;48.148;17.128;2024-02-16T04:10:46;54.92;;;32.25;;
24739;SDS011;45234;48.148;17.128;2024-02-16T04:13:13;44.17;;;29.60;;
24739;SDS011;45234;48.148;17.128;2024-02-16T04:15:40;53.58;;;31.90;;
24739;SDS011;45234;48.148;17.128;2024-02-16T04:18:07;51.13;;;32.33;;
24739;SDS011;45234;48.148;17.128;2024-02-16T04:20:35;47.55;;;32.08;;
24739;SDS011;45234;48.148;17.128;2024-02-16T04:23:03;48.53;;;31.42;;
24739;SDS011;45234;48.148;17.128;2024-02-16T04:25:30;48.35;;;32.28;;
24739;SDS011;45234;48.148;17.128;2024-02-16T04:27:57;53.20;;;31.65;;
24739;SDS011;45234;48.148;17.128;2024-02-16T04:30:24;48.35;;;31.10;;
24739;SDS011;45234;48.148;17.128;2024-02-16T04:32:51;45.95;;;30.42;;
24739;SDS011;45234;48.148;17.128;2024-02-16T04:35:19;45.80;;;29.83;;
24739;SDS011;45234;48.148;17.128;2024-02-16T04:37:46;46.67;;;30.35;;
24739;SDS011;45234;48.148;17.128;2024-02-16T04:40:12;47.05;;;31.30;;
24739;SDS011;45234;48.148;17.128;2024-02-16T04:42:39;49.83;;;30.58;;
24739;SDS011;45234;48.148;17.128;2024-02-16T04:45:06;45.05;;;29.77;;
24739;SDS011;45234;48.148;17.128;2024-02-16T04:47:36;46.28;;;30.25;;
24739;SDS011;45234;48.148;17.128;2024-02-16T04:50:04;43.10;;;29.17;;
24739;SDS011;45234;48.148;17.128;2024-02-16T04:52:36;47.95;;;28.17;;
24739;SDS011;45234;48.148;17.128;2024-02-16T04:55:04;44.05;;;29.45;;
24739;SDS011;45234;48.148;17.128;2024-02-16T04:57:32;45.75;;;28.02;;
24739;SDS011;45234;48.148;17.128;2024-02-16T05:00:00;45.03;;;28.23;;
24739;SDS011;45234;48.148;17.128;2024-02-16T05:02:27;40.42;;;28.02;;
24739;SDS011;45234;48.148;17.128;2024-02-16T05:04:53;44.08;;;28.85;;
24739;SDS011;45234;48.148;17.128;2024-02-16T05:07:21;45.28;;;28.60;;
24739;SDS011;45234;48.148;17.128;2024-02-16T05:09:48;49.08;;;28.90;;
24739;SDS011;45234;48.148;17.128;2024-02-16T05:12:15;38.72;;;26.75;;
24739;SDS011;45234;48.148;17.128;2024-02-16T05:14:47;47.30;;;30.23;;
24739;SDS011;45234;48.148;17.128;2024-02-16T05:17:17;45.83;;;27.92;;
24739;SDS011;45234;48.148;17.128;2024-02-16T05:19:46;42.53;;;27.75;;
24739;SDS011;45234;48.148;17.128;2024-02-16T05:22:12;41.83;;;29.65;;
24739;SDS011;45234;48.148;17.128;2024-02-16T05:24:40;46.65;;;29.27;;
24739;SDS011;45234;48.148;17.128;2024-02-16T05:27:07;41.75;;;28.38;;
24739;SDS011;45234;48.148;17.128;2024-02-16T05:29:33;47.10;;;27.77;;
24739;SDS011;45234;48.148;17.128;2024-02-16T05:32:00;48.00;;;29.17;;
24739;SDS011;45234;48.148;17.128;2024-02-16T05:34:27;42.63;;;27.92;;
24739;SDS011;45234;48.148;17.128;2024-02-16T05:36:58;45.63;;;28.17;;
24739;SDS011;45234;48.148;17.128;2024-02-16T05:39:25;46.55;;;29.10;;
24739;SDS011;45234;48.148;17.128;2024-02-16T05:41:53;48.47;;;29.30;;
24739;SDS011;45234;48.148;17.128;2024-02-16T05:44:19;47.58;;;28.30;;
24739;SDS011;45234;48.148;17.128;2024-02-16T05:46:46;43.45;;;27.67;;
24739;SDS011;45234;48.148;17.128;2024-02-16T05:49:14;40.20;;;26.77;;
24739;SDS011;45234;48.148;17.128;2024-02-16T05:51:44;43.65;;;28.35;;
24739;SDS011;45234;48.148;17.128;2024-02-16T05:54:31;45.63;;;28.55;;
24739;SDS011;45234;48.148;17.128;2024-02-16T05:57:03;44.05;;;27.02;;
24739;SDS011;45234;48.148;17.128;2024-02-16T05:59:30;38.22;;;25.73;;
24739;SDS011;45234;48.148;17.128;2024-02-16T06:01:56;45.50;;;28.00;;
24739;SDS011;45234;48.148;17.128;2024-02-16T06:04:24;40.58;;;26.67;;
24739;SDS011;45234;48.148;17.128;2024-02-16T06:06:52;43.20;;;27.48;;
24739;SDS011;45234;48.148;17.128;2024-02-16T06:09:20;39.10;;;27.33;;
24739;SDS011;45234;48.148;17.128;2024-02-16T06:11:47;41.80;;;27.67;;
24739;SDS011;45234;48.148;17.128;2024-02-16T06:14:14;41.20;;;28.42;;
24739;SDS011;45234;48.148;17.128;2024-02-16T06:16:45;40.80;;;26.08;;
24739;SDS011;45234;48.148;17.128;2024-02-16T06:19:11;45.08;;;27.20;;
24739;SDS011;45234;48.148;17.128;2024-02-16T06:21:38;40.97;;;26.40;;
24739;SDS011;45234;48.148;17.128;2024-02-16T06:24:05;41.90;;;27.15;;
24739;SDS011;45234;48.148;17.128;2024-02-16T06:26:33;41.90;;;27.55;;
24739;SDS011;45234;48.148;17.128;2024-02-16T06:29:00;41.15;;;27.92;;
24739;SDS011;45234;48.148;17.128;2024-02-16T06:31:27;41.08;;;24.92;;
24739;SDS011;45234;48.148;17.128;2024-02-16T06:33:53;36.65;;;24.50;;
24739;SDS011;45234;48.148;17.128;2024-02-16T06:36:22;37.72;;;22.85;;
24739;SDS011;45234;48.148;17.128;2024-02-16T06:38:49;37.78;;;24.60;;
24739;SDS011;45234;48.148;17.128;2024-02-16T06:41:17;32.00;;;22.17;;
24739;SDS011;45234;48.148;17.128;2024-02-16T06:43:44;37.38;;;22.48;;
24739;SDS011;45234;48.148;17.128;2024-02-16T06:46:11;29.92;;;20.75;;
24739;SDS011;45234;48.148;17.128;2024-02-16T06:48:37;32.72;;;21.45;;
24739;SDS011;45234;48.148;17.128;2024-02-16T06:51:04;31.92;;;21.55;;
24739;SDS011;45234;48.148;17.128;2024-02-16T06:53:34;33.60;;;20.90;;
24739;SDS011;45234;48.148;17.128;2024-02-16T06:56:01;33.47;;;21.13;;
24739;SDS011;45234;48.148;17.128;2024-02-16T06:58:28;33.28;;;21.77;;
24739;SDS011;45234;48.148;17.128;2024-02-16T07:00:55;27.67;;;21.13;;
24739;SDS011;45234;48.148;17.128;2024-02-16T07:03:24;29.58;;;22.25;;
24739;SDS011;45234;48.148;17.128;2024-02-16T07:05:50;30.30;;;21.38;;
24739;SDS011;45234;48.148;17.128;2024-02-16T07:08:17;33.50;;;23.38;;
24739;SDS011;45234;48.148;17.128;2024-02-16T07:10:44;33.65;;;22.65;;
24739;SDS011;45234;48.148;17.128;2024-02-16T07:13:13;31.70;;;22.40;;
24739;SDS011;45234;48.148;17.128;2024-02-16T07:15:40;35.28;;;22.33;;
24739;SDS011;45234;48.148;17.128;2024-02-16T07:18:07;32.25;;;21.55;;
24739;SDS011;45234;48.148;17.128;2024-02-16T07:20:35;32.30;;;22.00;;
24739;SDS011;45234;48.148;17.128;2024-02-16T07:23:02;29.13;;;21.02;;
24739;SDS011;45234;48.148;17.128;2024-02-16T07:25:29;31.63;;;21.35;;
24739;SDS011;45234;48.148;17.128;2024-02-16T07:27:56;30.95;;;21.95;;
24739;SDS011;45234;48.148;17.128;2024-02-16T07:30:22;34.30;;;22.35;;
24739;SDS011;45234;48.148;17.128;2024-02-16T07:33:01;30.13;;;21.52;;
24739;SDS011;45234;48.148;17.128;2024-02-16T07:35:28;34.83;;;22.25;;
24739;SDS011;45234;48.148;17.128;2024-02-16T07:37:55;32.33;;;22.10;;
24739;SDS011;45234;48.148;17.128;2024-02-16T07:40:22;28.67;;;20.83;;
24739;SDS011;45234;48.148;17.128;2024-02-16T07:42:49;34.70;;;21.55;;
24739;SDS011;45234;48.148;17.128;2024-02-16T07:45:15;29.02;;;21.33;;
24739;SDS011;45234;48.148;17.128;2024-02-16T07:47:42;32.03;;;22.13;;
24739;SDS011;45234;48.148;17.128;2024-02-16T07:50:09;29.73;;;20.77;;
24739;SDS011;45234;48.148;17.128;2024-02-16T07:52:37;31.92;;;21.27;;
24739;SDS011;45234;48.148;17.128;2024-02-16T07:55:08;28.88;;;21.60;;
24739;SDS011;45234;48.148;17.128;2024-02-16T07:57:34;34.15;;;21.25;;
24739;SDS011;45234;48.148;17.128;2024-02-16T08:00:02;29.83;;;21.15;;
24739;SDS011;45234;48.148;17.128;2024-02-16T08:02:32;33.42;;;22.45;;
24739;SDS011;45234;48.148;17.128;2024-02-16T08:04:59;30.35;;;20.90;;
24739;SDS011;45234;48.148;17.128;2024-02-16T08:07:26;31.88;;;21.30;;
24739;SDS011;45234;48.148;17.128;2024-02-16T08:09:53;35.22;;;22.45;;
24739;SDS011;45234;48.148;17.128;2024-02-16T08:12:20;30.60;;;22.40;;
24739;SDS011;45234;48.148;17.128;2024-02-16T08:14:48;31.05;;;21.00;;
24739;SDS011;45234;48.148;17.128;2024-02-16T08:17:14;30.50;;;20.50;;
24739;SDS011;45234;48.148;17.128;2024-02-16T08:19:50;28.15;;;21.27;;
24739;SDS011;45234;48.148;17.128;2024-02-16T08:22:20;31.45;;;22.48;;
24739;SDS011;45234;48.148;17.128;2024-02-16T08:24:47;30.17;;;21.75;;
24739;SDS011;45234;48.148;17.128;2024-02-16T08:27:15;31.52;;;22.13;;
24739;SDS011;45234;48.148;17.128;2024-02-16T08:29:43;28.40;;;21.13;;
24739;SDS011;45234;48.148;17.128;2024-02-16T08:32:11;30.88;;;21.02;;
24739;SDS011;45234;48.148;17.128;2024-02-16T08:34:38;31.13;;;20.85;;
24739;SDS011;45234;48.148;17.128;2024-02-16T08:37:05;31.20;;;21.60;;
24739;SDS011;45234;48.148;17.128;2024-02-16T08:39:33;29.38;;;21.42;;
24739;SDS011;45234;48.148;17.128;2024-02-16T08:42:00;31.63;;;21.73;;
24739;SDS011;45234;48.148;17.128;2024-02-16T08:44:29;30.50;;;20.77;;
24739;SDS011;45234;48.148;17.128;2024-02-16T08:46:55;30.92;;;21.40;;
24739;SDS011;45234;48.148;17.128;2024-02-16T08:49:22;31.65;;;21.20;;
24739;SDS011;45234;48.148;17.128;2024-02-16T08:51:49;30.00;;;19.45;;
24739;SDS011;45234;48.148;17.128;2024-02-16T08:54:16;29.15;;;19.52;;
24739;SDS011;45234;48.148;17.128;2024-02-16T08:56:45;29.10;;;19.92;;
24739;SDS011;45234;48.148;17.128;2024-02-16T08:59:13;27.48;;;20.27;;
24739;SDS011;45234;48.148;17.128;2024-02-16T09:01:42;28.90;;;19.98;;
24739;SDS011;45234;48.148;17.128;2024-02-16T09:04:09;31.80;;;19.75;;
24739;SDS011;45234;48.148;17.128;2024-02-16T09:06:36;27.77;;;18.55;;
24739;SDS011;45234;48.148;17.128;2024-02-16T09:09:04;28.70;;;18.90;;
24739;SDS011;45234;48.148;17.128;2024-02-16T09:11:33;24.77;;;17.67;;
24739;SDS011;45234;48.148;17.128;2024-02-16T09:14:00;28.50;;;18.38;;
24739;SDS011;45234;48.148;17.128;2024-02-16T09:16:27;24.45;;;18.20;;
24739;SDS011;45234;48.148;17.128;2024-02-16T09:18:54;25.88;;;18.65;;
24739;SDS011;45234;48.148;17.128;2024-02-16T09:21:21;29.33;;;18.95;;
24739;SDS011;45234;48.148;17.128;2024-02-16T09:23:49;22.45;;;16.15;;
24739;SDS011;45234;48.148;17.128;2024-02-16T09:26:16;23.08;;;16.70;;
24739;SDS011;45234;48.148;17.128;2024-02-16T09:28:43;22.63;;;16.50;;
24739;SDS011;45234;48.148;17.128;2024-02-16T09:31:13;24.70;;;16.38;;
24739;SDS011;45234;48.148;17.128;2024-02-16T09:33:40;20.65;;;15.13;;
24739;SDS011;45234;48.148;17.128;2024-02-16T09:36:07;25.95;;;16.40;;
24739;SDS011;45234;48.148;17.128;2024-02-16T09:38:35;21.73;;;16.83;;
24739;SDS011;45234;48.148;17.128;2024-02-16T09:41:02;27.08;;;16.50;;
24739;SDS011;45234;48.148;17.128;2024-02-16T09:43:29;22.70;;;16.48;;
24739;SDS011;45234;48.148;17.128;2024-02-16T09:45:57;24.42;;;16.45;;
24739;SDS011;45234;48.148;17.128;2024-02-16T09:48:26;22.98;;;16.15;;
24739;SDS011;45234;48.148;17.128;2024-02-16T09:50:54;21.08;;;15.98;;
24739;SDS011;45234;48.148;17.128;2024-02-16T09:53:27;24.95;;;15.93;;
24739;SDS011;45234;48.148;17.128;2024-02-16T09:55:55;20.83;;;15.10;;
24739;SDS011;45234;48.148;17.128;2024-02-16T09:58:22;24.58;;;15.73;;
24739;SDS011;45234;48.148;17.128;2024-02-16T10:00:50;21.42;;;14.52;;
24739;SDS011;45234;48.148;17.128;2024-02-16T10:03:27;21.60;;;15.00;;
24739;SDS011;45234;48.148;17.128;2024-02-16T10:06:05;22.67;;;14.93;;
24739;SDS011;45234;48.148;17.128;2024-02-16T10:08:34;20.42;;;15.63;;
24739;SDS011;45234;48.148;17.128;2024-02-16T10:11:12;20.30;;;15.27;;
24739;SDS011;45234;48.148;17.128;2024-02-16T10:13:40;20.40;;;14.10;;
24739;SDS011;45234;48.148;17.128;2024-02-16T10:16:08;20.52;;;14.15;;
24739;SDS011;45234;48.148;17.128;2024-02-16T10:18:38;23.77;;;14.43;;
24739;SDS011;45234;48.148;17.128;2024-02-16T10:21:05;19.58;;;14.80;;
24739;SDS011;45234;48.148;17.128;2024-02-16T10:23:36;21.63;;;15.30;;
24739;SDS011;45234;48.148;17.128;2024-02-16T10:26:06;20.20;;;13.35;;
24739;SDS011;45234;48.148;17.128;2024-02-16T10:28:33;19.65;;;13.95;;
24739;SDS011;45234;48.148;17.128;2024-02-16T10:31:00;17.85;;;13.95;;
24739;SDS011;45234;48.148;17.128;2024-02-16T10:33:30;17.50;;;12.43;;
24739;SDS011;45234;48.148;17.128;2024-02-16T10:35:59;17.33;;;11.52;;
24739;SDS011;45234;48.148;17.128;2024-02-16T10:38:28;22.23;;;11.63;;
24739;SDS011;45234;48.148;17.128;2024-02-16T10:40:56;18.48;;;11.80;;
24739;SDS011;45234;48.148;17.128;2024-02-16T10:43:26;14.55;;;10.10;;
24739;SDS011;45234;48.148;17.128;2024-02-16T10:45:54;19.70;;;11.45;;
24739;SDS011;45234;48.148;17.128;2024-02-16T10:48:23;12.68;;;10.52;;
24739;SDS011;45234;48.148;17.128;2024-02-16T10:50:51;16.63;;;11.80;;
24739;SDS011;45234;48.148;17.128;2024-02-16T10:53:21;18.35;;;10.45;;
24739;SDS011;45234;48.148;17.128;2024-02-16T10:55:53;17.58;;;12.05;;
24739;SDS011;45234;48.148;17.128;2024-02-16T10:58:22;17.02;;;11.70;;
24739;SDS011;45234;48.148;17.128;2024-02-16T11:00:50;16.38;;;11.23;;
24739;SDS011;45234;48.148;17.128;2024-02-16T11:03:21;13.52;;;9.85;;
24739;SDS011;45234;48.148;17.128;2024-02-16T11:05:53;18.17;;;11.52;;
24739;SDS011;45234;48.148;17.128;2024-02-16T11:08:23;17.73;;;10.40;;
24739;SDS011;45234;48.148;17.128;2024-02-16T11:10:55;10.95;;;9.80;;
24739;SDS011;45234;48.148;17.128;2024-02-16T11:13:22;13.05;;;10.45;;
24739;SDS011;45234;48.148;17.128;2024-02-16T11:18:27;15.13;;;10.75;;
24739;SDS011;45234;48.148;17.128;2024-02-16T11:20:55;15.52;;;10.52;;
24739;SDS011;45234;48.148;17.128;2024-02-16T11:23:29;16.42;;;9.25;;
24739;SDS011;45234;48.148;17.128;2024-02-16T11:26:00;17.15;;;10.63;;
24739;SDS011;45234;48.148;17.128;2024-02-16T11:28:32;18.88;;;10.52;;
24739;SDS011;45234;48.148;17.128;2024-02-16T11:31:00;15.23;;;10.60;;
24739;SDS011;45234;48.148;17.128;2024-02-16T11:33:28;22.98;;;10.77;;
24739;SDS011;45234;48.148;17.128;2024-02-16T11:35:58;15.73;;;9.80;;
24739;SDS011;45234;48.148;17.128;2024-02-16T11:38:26;15.27;;;9.55;;
24739;SDS011;45234;48.148;17.128;2024-02-16T11:40:59;12.93;;;9.57;;
24739;SDS011;45234;48.148;17.128;2024-02-16T11:43:29;13.93;;;9.30;;
24739;SDS011;45234;48.148;17.128;2024-02-16T11:45:56;13.40;;;9.55;;
24739;SDS011;45234;48.148;17.128;2024-02-16T11:48:24;13.63;;;8.82;;
24739;SDS011;45234;48.148;17.128;2024-02-16T11:51:03;13.15;;;9.13;;
24739;SDS011;45234;48.148;17.128;2024-02-16T11:53:30;14.77;;;8.52;;
24739;SDS011;45234;48.148;17.128;2024-02-16T11:55:58;13.32;;;9.38;;
24739;SDS011;45234;48.148;17.128;2024-02-16T11:58:25;12.00;;;8.43;;
24739;SDS011;45234;48.148;17.128;2024-02-16T12:00:53;14.82;;;8.07;;
24739;SDS011;45234;48.148;17.128;2024-02-16T12:03:25;13.75;;;9.73;;
24739;SDS011;45234;48.148;17.128;2024-02-16T12:05:54;16.00;;;9.50;;
24739;SDS011;45234;48.148;17.128;2024-02-16T12:08:23;18.38;;;9.45;;
24739;SDS011;45234;48.148;17.128;2024-02-16T12:10:50;15.85;;;8.60;;
24739;SDS011;45234;48.148;17.128;2024-02-16T12:13:18;12.15;;;8.43;;
24739;SDS011;45234;48.148;17.128;2024-02-16T12:15:49;12.60;;;7.82;;
24739;SDS011;45234;48.148;17.128;2024-02-16T12:18:21;10.73;;;7.60;;
24739;SDS011;45234;48.148;17.128;2024-02-16T12:21:02;11.52;;;7.72;;
24739;SDS011;45234;48.148;17.128;2024-02-16T12:23:32;11.23;;;8.23;;
24739;SDS011;45234;48.148;17.128;2024-02-16T12:25:59;11.38;;;8.45;;
24739;SDS011;45234;48.148;17.128;2024-02-16T12:28:27;12.70;;;8.23;;
24739;SDS011;45234;48.148;17.128;2024-02-16T12:30:55;15.30;;;8.82;;
24739;SDS011;45234;48.148;17.128;2024-02-16T12:33:25;10.48;;;7.15;;
24739;SDS011;45234;48.148;17.128;2024-02-16T12:35:53;11.73;;;7.35;;
24739;SDS011;45234;48.148;17.128;2024-02-16T12:38:20;18.05;;;8.15;;
24739;SDS011;45234;48.148;17.128;2024-02-16T12:40:46;13.73;;;7.65;;
24739;SDS011;45234;48.148;17.128;2024-02-16T12:43:14;13.27;;;7.70;;
24739;SDS011;45234;48.148;17.128;2024-02-16T12:45:41;13.85;;;7.68;;
24739;SDS011;45234;48.148;17.128;2024-02-16T12:48:08;14.68;;;10.27;;
24739;SDS011;45234;48.148;17.128;2024-02-16T12:50:36;14.63;;;9.68;;
24739;SDS011;45234;48.148;17.128;2024-02-16T12:53:05;14.25;;;9.93;;
24739;SDS011;45234;48.148;17.128;2024-02-16T12:55:32;15.38;;;9.35;;
24739;SDS011;45234;48.148;17.128;2024-02-16T12:57:59;14.88;;;10.20;;
24739;SDS011;45234;48.148;17.128;2024-02-16T13:00:26;12.73;;;9.02;;
24739;SDS011;45234;48.148;17.128;2024-02-16T13:02:52;16.23;;;10.55;;
24739;SDS011;45234;48.148;17.128;2024-02-16T13:05:19;16.48;;;11.20;;
24739;SDS011;45234;48.148;17.128;2024-02-16T13:07:47;19.35;;;11.23;;
24739;SDS011;45234;48.148;17.128;2024-02-16T13:10:14;15.77;;;11.30;;
24739;SDS011;45234;48.148;17.128;2024-02-16T13:12:41;16.05;;;11.38;;
24739;SDS011;45234;48.148;17.128;2024-02-16T13:15:09;14.38;;;10.75;;
24739;SDS011;45234;48.148;17.128;2024-02-16T13:17:52;19.13;;;11.18;;
24739;SDS011;45234;48.148;17.128;2024-02-16T13:20:21;14.52;;;10.38;;
24739;SDS011;45234;48.148;17.128;2024-02-16T13:22:48;16.95;;;10.95;;
24739;SDS011;45234;48.148;17.128;2024-02-16T13:25:15;19.30;;;11.82;;
24739;SDS011;45234;48.148;17.128;2024-02-16T13:27:42;17.23;;;10.95;;
24739;SDS011;45234;48.148;17.128;2024-02-16T13:30:09;19.88;;;11.43;;
24739;SDS011;45234;48.148;17.128;2024-02-16T13:32:36;14.85;;;11.55;;
24739;SDS011;45234;48.148;17.128;2024-02-16T13:35:06;16.20;;;11.30;;
24739;SDS011;45234;48.148;17.128;2024-02-16T13:37:33;14.55;;;10.23;;
24739;SDS011;45234;48.148;17.128;2024-02-16T13:40:00;16.35;;;10.23;;
24739;SDS011;45234;48.148;17.128;2024-02-16T13:42:30;13.40;;;10.77;;
24739;SDS011;45234;48.148;17.128;2024-02-16T13:44:57;17.92;;;10.95;;
24739;SDS011;45234;48.148;17.128;2024-02-16T13:47:24;13.88;;;11.00;;
24739;SDS011;45234;48.148;17.128;2024-02-16T13:49:51;13.52;;;9.40;;
24739;SDS011;45234;48.148;17.128;2024-02-16T13:52:18;13.18;;;10.55;;
24739;SDS011;45234;48.148;17.128;2024-02-16T13:54:46;13.63;;;10.50;;
24739;SDS011;45234;48.148;17.128;2024-02-16T13:57:12;16.15;;;9.43;;
24739;SDS011;45234;48.148;17.128;2024-02-16T13:59:43;19.17;;;9.02;;
24739;SDS011;45234;48.148;17.128;2024-02-16T14:02:09;17.35;;;9.93;;
24739;SDS011;45234;48.148;17.128;2024-02-16T14:04:36;15.77;;;9.27;;
24739;SDS011;45234;48.148;17.128;2024-02-16T14:07:06;18.88;;;9.23;;
24739;SDS011;45234;48.148;17.128;2024-02-16T14:09:33;17.23;;;8.80;;
24739;SDS011;45234;48.148;17.128;2024-02-16T14:12:00;11.85;;;9.23;;
24739;SDS011;45234;48.148;17.128;2024-02-16T14:14:27;18.73;;;9.80;;
24739;SDS011;45234;48.148;17.128;2024-02-16T14:17:03;14.20;;;9.52;;
24739;SDS011;45234;48.148;17.128;2024-02-16T14:19:30;13.50;;;9.52;;